createdAt,value
2022-08-28T00:00:15.594Z,2.08
2022-08-28T00:02:42.980Z,1.90
2022-08-28T00:05:11.627Z,2.03
2022-08-28T00:07:39.032Z,2.13
2022-08-28T00:10:08.520Z,2.28
2022-08-28T00:12:36.548Z,2.15
2022-08-28T00:15:09.785Z,1.77
2022-08-28T00:17:40.186Z,2.05
2022-08-28T00:20:09.696Z,2.33
2022-08-28T00:22:38.419Z,2.03
2022-08-28T00:25:07.312Z,2.20
2022-08-28T00:27:52.313Z,2.72
2022-08-28T00:30:34.284Z,2.10
2022-08-28T00:33:05.444Z,2.42
2022-08-28T00:35:32.172Z,2.20
2022-08-28T00:37:59.347Z,2.17
2022-08-28T00:40:32.532Z,2.42
2022-08-28T00:43:03.098Z,2.13
2022-08-28T00:45:33.862Z,2.25
2022-08-28T00:48:02.790Z,2.17
2022-08-28T00:50:56.704Z,2.45
2022-08-28T00:53:32.760Z,2.67
2022-08-28T00:56:04.205Z,2.33
2022-08-28T00:58:33.987Z,2.40
2022-08-28T01:01:00.808Z,2.33
2022-08-28T01:03:28.410Z,2.40
2022-08-28T01:05:55.632Z,2.50
2022-08-28T01:08:23.021Z,2.33
2022-08-28T01:10:54.131Z,2.30
2022-08-28T01:13:21.096Z,2.70
2022-08-28T01:15:49.770Z,2.33
2022-08-28T01:18:17.610Z,2.45
2022-08-28T01:20:59.601Z,2.28
2022-08-28T01:23:42.504Z,2.70
2022-08-28T01:26:11.004Z,2.53
2022-08-28T01:28:39.433Z,2.38
2022-08-28T01:31:08.812Z,2.38
2022-08-28T01:33:35.308Z,1.92
2022-08-28T01:36:02.152Z,2.38
2022-08-28T01:38:28.686Z,2.58
2022-08-28T01:40:57.741Z,2.40
2022-08-28T01:43:26.283Z,2.88
2022-08-28T01:45:57.581Z,2.60
2022-08-28T01:48:26.109Z,2.33
2022-08-28T01:50:53.054Z,2.13
2022-08-28T01:53:24.929Z,2.30
2022-08-28T01:55:53.447Z,2.60
2022-08-28T01:58:21.152Z,2.42
2022-08-28T02:00:48.009Z,2.60
2022-08-28T02:03:15.201Z,2.58
2022-08-28T02:05:42.240Z,2.88
2022-08-28T02:08:08.958Z,2.50
2022-08-28T02:10:38.203Z,2.88
2022-08-28T02:13:06.235Z,3.00
2022-08-28T02:15:35.125Z,3.58
2022-08-28T02:18:02.059Z,2.78
2022-08-28T02:20:29.318Z,2.88
2022-08-28T02:22:57.933Z,2.35
2022-08-28T02:25:25.514Z,3.05
2022-08-28T02:27:52.014Z,2.80
2022-08-28T02:30:19.308Z,2.72
2022-08-28T02:32:46.638Z,2.88
2022-08-28T02:35:15.827Z,2.72
2022-08-28T02:37:44.350Z,2.85
2022-08-28T02:40:16.443Z,2.70
2022-08-28T02:42:44.640Z,2.20
2022-08-28T02:45:13.488Z,2.53
2022-08-28T02:47:42.434Z,2.92
2022-08-28T02:50:12.964Z,2.28
2022-08-28T02:52:40.602Z,2.55
2022-08-28T02:55:08.961Z,2.38
2022-08-28T02:57:35.606Z,2.95
2022-08-28T03:00:05.217Z,2.70
2022-08-28T03:02:31.900Z,2.58
2022-08-28T03:04:59.801Z,2.80
2022-08-28T03:07:29.225Z,2.65
2022-08-28T03:09:56.404Z,2.33
2022-08-28T03:12:25.802Z,3.05
2022-08-28T03:14:53.009Z,2.70
2022-08-28T03:17:20.150Z,2.72
2022-08-28T03:19:46.929Z,2.90
2022-08-28T03:22:13.444Z,2.60
2022-08-28T03:24:39.952Z,3.30
2022-08-28T03:27:06.547Z,2.83
2022-08-28T03:29:33.074Z,2.90
2022-08-28T03:32:00.305Z,2.83
2022-08-28T03:34:27.027Z,2.55
2022-08-28T03:36:53.593Z,3.28
2022-08-28T03:39:20.232Z,2.97
2022-08-28T03:41:46.726Z,2.65
2022-08-28T03:44:13.506Z,2.67
2022-08-28T03:46:40.024Z,2.58
2022-08-28T03:49:06.498Z,2.70
2022-08-28T03:51:34.392Z,2.95
2022-08-28T03:54:03.087Z,3.08
2022-08-28T03:56:30.950Z,2.45
2022-08-28T03:59:00.505Z,2.75
2022-08-28T04:01:27.695Z,2.83
2022-08-28T04:03:54.433Z,2.88
2022-08-28T04:06:21.204Z,2.42
2022-08-28T04:08:47.976Z,2.58
2022-08-28T04:11:14.995Z,2.72
2022-08-28T04:13:41.968Z,2.78
2022-08-28T04:16:11.302Z,2.97
2022-08-28T04:18:42.488Z,2.95
2022-08-28T04:21:16.422Z,2.80
2022-08-28T04:23:44.979Z,3.05
2022-08-28T04:26:18.334Z,3.05
2022-08-28T04:28:46.705Z,2.78
2022-08-28T04:31:15.021Z,2.92
2022-08-28T04:33:41.945Z,2.90
2022-08-28T04:36:13.049Z,2.55
2022-08-28T04:38:43.937Z,2.75
2022-08-28T04:41:15.161Z,3.05
2022-08-28T04:43:42.629Z,2.72
2022-08-28T04:46:13.220Z,2.30
2022-08-28T04:48:40.891Z,3.08
2022-08-28T04:51:09.411Z,2.70
2022-08-28T04:53:38.176Z,2.83
2022-08-28T04:56:07.296Z,2.83
2022-08-28T04:58:34.287Z,2.60
2022-08-28T05:01:10.968Z,2.75
2022-08-28T05:03:37.504Z,2.88
2022-08-28T05:06:04.592Z,2.88
2022-08-28T05:08:31.980Z,2.42
2022-08-28T05:11:08.498Z,3.05
2022-08-28T05:13:35.202Z,2.90
2022-08-28T05:16:03.898Z,2.55
2022-08-28T05:18:30.420Z,3.42
2022-08-28T05:20:57.546Z,2.70
2022-08-28T05:23:25.621Z,2.90
2022-08-28T05:25:52.434Z,2.83
2022-08-28T05:28:19.081Z,2.75
2022-08-28T05:30:46.158Z,2.63
2022-08-28T05:33:14.514Z,2.72
2022-08-28T05:35:43.963Z,2.70
2022-08-28T05:38:13.417Z,2.58
2022-08-28T05:40:43.449Z,2.33
2022-08-28T05:43:11.603Z,2.70
2022-08-28T05:45:38.149Z,2.67
2022-08-28T05:48:05.137Z,2.60
2022-08-28T05:50:31.692Z,2.33
2022-08-28T05:52:58.231Z,2.55
2022-08-28T05:55:24.845Z,2.42
2022-08-28T05:57:51.314Z,2.80
2022-08-28T06:00:18.397Z,2.58
2022-08-28T06:02:45.033Z,2.38
2022-08-28T06:05:12.632Z,2.40
2022-08-28T06:07:44.045Z,2.40
2022-08-28T06:10:10.844Z,2.20
2022-08-28T06:12:38.148Z,2.97
2022-08-28T06:15:06.022Z,2.50
2022-08-28T06:17:32.658Z,2.30
2022-08-28T06:19:59.370Z,2.92
2022-08-28T06:22:25.938Z,2.70
2022-08-28T06:24:53.902Z,2.53
2022-08-28T06:27:20.542Z,2.78
2022-08-28T06:29:47.195Z,2.25
2022-08-28T06:32:13.799Z,1.85
2022-08-28T06:34:40.636Z,2.58
2022-08-28T06:37:08.797Z,2.08
2022-08-28T06:39:35.518Z,2.42
2022-08-28T06:42:02.185Z,2.22
2022-08-28T06:44:28.913Z,2.53
2022-08-28T06:46:55.719Z,2.03
2022-08-28T06:49:22.500Z,2.20
2022-08-28T06:51:49.573Z,2.63
2022-08-28T06:54:22.306Z,2.20
2022-08-28T06:56:50.925Z,2.15
2022-08-28T06:59:17.508Z,2.28
2022-08-28T07:01:44.269Z,2.30
2022-08-28T07:04:13.763Z,2.40
2022-08-28T07:06:43.990Z,2.40
2022-08-28T07:09:11.665Z,2.13
2022-08-28T07:11:39.148Z,2.10
2022-08-28T07:14:06.620Z,2.13
2022-08-28T07:16:38.196Z,2.05
2022-08-28T07:19:06.659Z,2.05
2022-08-28T07:21:38.644Z,1.92
2022-08-28T07:24:06.419Z,1.88
2022-08-28T07:26:33.091Z,2.50
2022-08-28T07:29:10.797Z,2.45
2022-08-28T07:31:41.521Z,2.25
2022-08-28T07:34:09.719Z,2.08
2022-08-28T07:36:37.077Z,2.47
2022-08-28T07:39:05.167Z,1.60
2022-08-28T07:41:34.365Z,1.92
2022-08-28T07:44:20.055Z,1.63
2022-08-28T07:46:46.723Z,2.15
2022-08-28T07:49:17.347Z,2.10
2022-08-28T07:51:46.686Z,1.90
2022-08-28T07:54:15.485Z,1.80
2022-08-28T07:56:44.375Z,1.77
2022-08-28T07:59:11.886Z,1.88
2022-08-28T08:01:43.686Z,1.83
2022-08-28T08:04:13.240Z,2.08
2022-08-28T08:06:41.164Z,1.60
2022-08-28T08:09:11.085Z,1.70
2022-08-28T08:11:38.242Z,1.77
2022-08-28T08:14:05.958Z,1.73
2022-08-28T08:16:35.765Z,1.55
2022-08-28T08:19:03.375Z,2.30
2022-08-28T08:21:31.637Z,1.90
2022-08-28T08:23:58.947Z,1.80
2022-08-28T08:26:30.124Z,1.60
2022-08-28T08:28:56.979Z,1.90
2022-08-28T08:31:35.190Z,1.83
2022-08-28T08:34:04.339Z,1.60
2022-08-28T08:36:33.418Z,1.65
2022-08-28T08:39:00.721Z,1.77
2022-08-28T08:41:48.134Z,1.58
2022-08-28T08:44:23.562Z,1.58
2022-08-28T08:47:22.366Z,1.70
2022-08-28T08:49:57.210Z,1.52
2022-08-28T08:52:59.236Z,1.30
2022-08-28T08:55:32.197Z,1.77
2022-08-28T08:58:06.729Z,2.08
2022-08-28T09:00:39.307Z,1.70
2022-08-28T09:03:13.234Z,1.48
2022-08-28T09:05:46.190Z,1.50
2022-08-28T09:08:25.194Z,1.58
2022-08-28T09:11:00.788Z,1.70
2022-08-28T09:13:39.656Z,1.70
2022-08-28T09:16:17.465Z,1.70
2022-08-28T09:18:44.795Z,2.05
2022-08-28T09:21:11.729Z,1.20
2022-08-28T09:23:38.250Z,1.90
2022-08-28T09:26:12.405Z,1.92
2022-08-28T09:28:41.554Z,1.58
2022-08-28T09:31:32.885Z,1.50
2022-08-28T09:34:23.594Z,1.40
2022-08-28T09:36:51.216Z,1.95
2022-08-28T09:39:21.219Z,1.52
2022-08-28T09:42:14.338Z,1.50
2022-08-28T09:45:09.418Z,1.52
2022-08-28T09:48:00.597Z,1.52
2022-08-28T09:50:38.650Z,1.67
2022-08-28T09:53:13.991Z,1.55
2022-08-28T09:55:55.941Z,1.38
2022-08-28T09:58:28.508Z,1.13
2022-08-28T10:01:32.252Z,1.60
2022-08-28T10:04:27.956Z,1.10
2022-08-28T10:07:13.275Z,1.70
2022-08-28T10:10:02.511Z,1.38
2022-08-28T10:13:01.475Z,1.63
2022-08-28T10:15:49.943Z,1.85
2022-08-28T10:18:38.850Z,1.63
2022-08-28T10:21:10.442Z,1.58
2022-08-28T10:24:24.762Z,1.38
2022-08-28T10:27:15.274Z,1.50
2022-08-28T10:30:07.698Z,1.50
2022-08-28T10:32:51.554Z,1.45
2022-08-28T10:35:23.068Z,1.08
2022-08-28T10:38:16.789Z,1.30
2022-08-28T10:40:52.137Z,1.58
2022-08-28T10:43:26.789Z,1.30
2022-08-28T10:45:54.910Z,1.45
2022-08-28T10:48:31.957Z,1.50
2022-08-28T10:51:04.716Z,2.05
2022-08-28T10:53:39.585Z,1.40
2022-08-28T10:56:25.378Z,1.38
2022-08-28T10:58:58.633Z,1.35
2022-08-28T11:01:38.481Z,1.50
2022-08-28T11:04:25.122Z,1.42
2022-08-28T11:06:57.679Z,1.45
2022-08-28T11:09:34.887Z,1.67
2022-08-28T11:12:27.490Z,1.50
2022-08-28T11:14:54.411Z,1.38
2022-08-28T11:17:30.518Z,1.45
2022-08-28T11:20:17.923Z,1.45
2022-08-28T11:23:03.228Z,1.50
2022-08-28T11:26:02.248Z,1.30
2022-08-28T11:28:34.720Z,1.40
2022-08-28T11:31:01.339Z,1.50
2022-08-28T11:33:37.094Z,1.40
2022-08-28T11:36:33.508Z,1.60
2022-08-28T11:39:29.879Z,1.55
2022-08-28T11:42:11.454Z,1.38
2022-08-28T11:44:44.020Z,1.40
2022-08-28T11:47:44.768Z,1.58
2022-08-28T11:50:21.829Z,1.80
2022-08-28T11:52:57.942Z,1.67
2022-08-28T11:55:48.064Z,1.13
2022-08-28T11:58:18.730Z,1.30
2022-08-28T12:01:00.610Z,1.63
2022-08-28T12:03:34.443Z,1.15
2022-08-28T12:06:02.303Z,1.50
2022-08-28T12:08:47.676Z,1.38
2022-08-28T12:12:04.049Z,1.58
2022-08-28T12:14:30.557Z,1.52
2022-08-28T12:16:59.820Z,1.20
2022-08-28T12:19:43.031Z,1.17
2022-08-28T12:22:26.404Z,1.23
2022-08-28T12:24:58.009Z,1.70
2022-08-28T12:27:25.761Z,1.20
2022-08-28T12:29:57.672Z,1.60
2022-08-28T12:32:48.793Z,1.23
2022-08-28T12:35:21.020Z,1.58
2022-08-28T12:37:53.836Z,1.25
2022-08-28T12:40:30.475Z,1.15
2022-08-28T12:43:06.777Z,1.38
2022-08-28T12:45:45.543Z,1.50
2022-08-28T12:48:21.566Z,1.10
2022-08-28T12:50:48.882Z,1.20
2022-08-28T12:53:18.207Z,1.38
2022-08-28T12:55:46.568Z,1.50
2022-08-28T12:58:26.704Z,1.55
2022-08-28T13:00:58.204Z,1.30
2022-08-28T13:03:25.283Z,1.33
2022-08-28T13:06:05.389Z,1.15
2022-08-28T13:08:34.159Z,0.98
2022-08-28T13:11:01.292Z,1.50
2022-08-28T13:13:36.027Z,1.48
2022-08-28T13:16:10.940Z,1.40
2022-08-28T13:19:11.187Z,1.13
2022-08-28T13:21:52.042Z,1.30
2022-08-28T13:24:24.201Z,1.08
2022-08-28T13:27:15.989Z,1.10
2022-08-28T13:29:48.711Z,1.08
2022-08-28T13:32:18.037Z,1.15
2022-08-28T13:35:09.606Z,1.17
2022-08-28T13:37:57.166Z,0.88
2022-08-28T13:40:56.330Z,1.00
2022-08-28T13:43:16.528Z,1.02
2022-08-28T13:45:45.385Z,1.20
2022-08-28T13:48:13.220Z,1.40
2022-08-28T13:50:46.844Z,1.00
2022-08-28T13:53:15.646Z,1.48
2022-08-28T13:55:42.353Z,1.35
2022-08-28T13:58:09.031Z,1.17
2022-08-28T14:00:40.777Z,1.15
2022-08-28T14:03:26.067Z,1.20
2022-08-28T14:05:53.099Z,1.10
2022-08-28T14:08:19.627Z,1.15
2022-08-28T14:10:46.508Z,1.20
2022-08-28T14:13:13.937Z,1.15
2022-08-28T14:15:40.558Z,1.48
2022-08-28T14:18:07.380Z,1.20
2022-08-28T14:20:34.129Z,0.93
2022-08-28T14:23:00.632Z,1.10
2022-08-28T14:25:27.107Z,1.40
2022-08-28T14:27:55.702Z,1.30
2022-08-28T14:30:22.816Z,1.00
2022-08-28T14:32:49.391Z,1.10
2022-08-28T14:35:15.969Z,0.80
2022-08-28T14:37:42.838Z,0.98
2022-08-28T14:40:10.339Z,1.27
2022-08-28T14:42:37.536Z,1.17
2022-08-28T14:45:04.501Z,1.50
2022-08-28T14:47:30.982Z,1.15
2022-08-28T14:49:57.567Z,1.05
2022-08-28T14:52:24.124Z,1.02
2022-08-28T14:54:50.667Z,1.13
2022-08-28T14:57:17.570Z,1.27
2022-08-28T14:59:45.309Z,1.02
2022-08-28T15:02:13.566Z,1.10
2022-08-28T15:04:40.096Z,1.10
2022-08-28T15:07:10.915Z,0.88
2022-08-28T15:09:40.812Z,1.33
2022-08-28T15:12:07.512Z,0.85
2022-08-28T15:14:35.537Z,1.15
2022-08-28T15:17:03.376Z,1.38
2022-08-28T15:19:30.132Z,1.00
2022-08-28T15:21:57.999Z,1.08
2022-08-28T15:24:28.425Z,1.10
2022-08-28T15:26:55.442Z,1.50
2022-08-28T15:29:22.211Z,1.38
2022-08-28T15:31:50.357Z,1.60
2022-08-28T15:34:25.041Z,4.30
2022-08-28T15:36:54.742Z,2.08
2022-08-28T15:39:41.314Z,2.25
2022-08-28T15:42:08.382Z,1.83
2022-08-28T15:44:34.906Z,2.35
2022-08-28T15:47:02.757Z,2.88
2022-08-28T15:49:32.316Z,10.68
2022-08-28T15:52:05.677Z,5.68
2022-08-28T15:54:32.463Z,9.07
2022-08-28T15:56:59.338Z,11.13
2022-08-28T15:59:25.857Z,2.47
2022-08-28T16:02:12.840Z,2.38
2022-08-28T16:04:39.472Z,1.75
2022-08-28T16:07:06.742Z,1.67
2022-08-28T16:09:33.321Z,2.00
2022-08-28T16:11:59.889Z,1.80
2022-08-28T16:14:26.425Z,1.90
2022-08-28T16:16:52.910Z,1.13
2022-08-28T16:19:19.555Z,1.30
2022-08-28T16:21:46.200Z,1.20
2022-08-28T16:24:12.775Z,1.00
2022-08-28T16:26:39.497Z,1.40
2022-08-28T16:29:06.074Z,1.30
2022-08-28T16:31:34.333Z,1.30
2022-08-28T16:34:02.941Z,1.20
2022-08-28T16:36:30.073Z,1.30
2022-08-28T16:39:00.561Z,1.33
2022-08-28T16:41:31.904Z,1.42
2022-08-28T16:43:59.158Z,1.52
2022-08-28T16:46:27.278Z,1.38
2022-08-28T16:48:54.484Z,1.17
2022-08-28T16:51:26.785Z,1.70
2022-08-28T16:53:54.764Z,1.17
2022-08-28T16:56:23.655Z,1.35
2022-08-28T16:58:53.021Z,1.73
2022-08-28T17:01:23.868Z,2.00
2022-08-28T17:03:52.634Z,2.35
2022-08-28T17:06:23.704Z,1.50
2022-08-28T17:08:55.846Z,1.70
2022-08-28T17:11:24.432Z,1.77
2022-08-28T17:13:51.253Z,1.83
2022-08-28T17:16:18.846Z,1.88
2022-08-28T17:18:47.995Z,2.75
2022-08-28T17:21:37.637Z,1.85
2022-08-28T17:24:05.466Z,1.67
2022-08-28T17:26:32.149Z,1.60
2022-08-28T17:28:58.672Z,1.80
2022-08-28T17:31:25.267Z,1.67
2022-08-28T17:33:52.348Z,1.73
2022-08-28T17:36:30.737Z,1.67
2022-08-28T17:39:05.874Z,1.90
2022-08-28T17:41:33.487Z,1.90
2022-08-28T17:44:01.162Z,2.25
2022-08-28T17:46:28.207Z,2.00
2022-08-28T17:48:56.031Z,1.90
2022-08-28T17:51:33.743Z,2.00
2022-08-28T17:54:10.444Z,1.90
2022-08-28T17:56:36.929Z,1.70
2022-08-28T17:59:04.379Z,2.13
2022-08-28T18:01:30.996Z,2.00
2022-08-28T18:03:57.774Z,2.38
2022-08-28T18:06:24.943Z,2.22
2022-08-28T18:08:51.922Z,2.08
2022-08-28T18:11:19.153Z,1.95
2022-08-28T18:13:46.457Z,2.03
2022-08-28T18:16:13.616Z,2.05
2022-08-28T18:18:41.121Z,2.10
2022-08-28T18:21:10.397Z,2.15
2022-08-28T18:23:37.391Z,2.20
2022-08-28T18:26:03.885Z,2.92
2022-08-28T18:28:31.944Z,2.47
2022-08-28T18:30:58.620Z,2.00
2022-08-28T18:33:25.362Z,2.25
2022-08-28T18:35:53.534Z,2.10
2022-08-28T18:38:22.289Z,2.20
2022-08-28T18:40:49.944Z,1.85
2022-08-28T18:43:20.205Z,2.00
2022-08-28T18:45:47.375Z,2.35
2022-08-28T18:48:14.808Z,2.55
2022-08-28T18:50:46.128Z,2.17
2022-08-28T18:53:14.199Z,2.05
2022-08-28T18:55:40.793Z,2.20
2022-08-28T18:58:07.387Z,2.25
2022-08-28T19:00:33.902Z,2.55
2022-08-28T19:03:00.685Z,2.33
2022-08-28T19:05:27.441Z,2.10
2022-08-28T19:07:54.040Z,2.00
2022-08-28T19:10:32.543Z,2.38
2022-08-28T19:13:01.106Z,2.40
2022-08-28T19:15:28.488Z,1.75
2022-08-28T19:17:55.241Z,2.30
2022-08-28T19:20:22.187Z,2.40
2022-08-28T19:22:49.309Z,2.30
2022-08-28T19:25:28.887Z,2.20
2022-08-28T19:27:59.138Z,1.75
2022-08-28T19:30:28.678Z,2.22
2022-08-28T19:32:55.197Z,2.70
2022-08-28T19:35:24.247Z,2.28
2022-08-28T19:37:52.299Z,2.67
2022-08-28T19:40:20.735Z,2.10
2022-08-28T19:42:49.792Z,2.20
2022-08-28T19:45:17.770Z,2.22
2022-08-28T19:47:44.896Z,2.83
2022-08-28T19:50:14.083Z,2.50
2022-08-28T19:52:41.886Z,2.42
2022-08-28T19:55:17.629Z,2.63
2022-08-28T19:57:46.118Z,2.60
2022-08-28T20:00:15.080Z,2.17
2022-08-28T20:02:41.876Z,2.25
2022-08-28T20:05:08.995Z,2.20
2022-08-28T20:07:35.601Z,2.25
2022-08-28T20:10:02.260Z,2.30
2022-08-28T20:12:28.785Z,2.38
2022-08-28T20:14:59.021Z,2.55
2022-08-28T20:17:29.470Z,2.60
2022-08-28T20:20:02.345Z,2.55
2022-08-28T20:22:31.760Z,2.97
2022-08-28T20:24:59.412Z,2.35
2022-08-28T20:27:26.440Z,2.28
2022-08-28T20:29:53.124Z,2.42
2022-08-28T20:32:19.718Z,2.95
2022-08-28T20:34:46.633Z,2.25
2022-08-28T20:37:13.575Z,2.45
2022-08-28T20:39:41.791Z,2.53
2022-08-28T20:42:09.804Z,2.08
2022-08-28T20:44:36.534Z,2.58
2022-08-28T20:47:04.125Z,2.70
2022-08-28T20:49:30.623Z,2.80
2022-08-28T20:51:57.553Z,2.78
2022-08-28T20:54:38.566Z,2.78
2022-08-28T20:57:11.584Z,2.38
2022-08-28T20:59:40.727Z,2.25
2022-08-28T21:02:17.347Z,2.60
2022-08-28T21:04:45.666Z,3.05
2022-08-28T21:07:14.081Z,2.05
2022-08-28T21:10:03.809Z,2.40
2022-08-28T21:12:28.001Z,2.88
2022-08-28T21:14:54.623Z,2.50
2022-08-28T21:17:28.697Z,2.33
2022-08-28T21:19:56.637Z,2.42
2022-08-28T21:22:23.247Z,2.40
2022-08-28T21:24:49.957Z,2.22
2022-08-28T21:27:16.528Z,2.58
2022-08-28T21:29:45.842Z,2.63
2022-08-28T21:32:13.076Z,2.28
2022-08-28T21:34:39.781Z,2.63
2022-08-28T21:37:06.543Z,2.33
2022-08-28T21:39:33.530Z,2.63
2022-08-28T21:42:00.191Z,2.75
2022-08-28T21:44:26.788Z,2.70
2022-08-28T21:46:53.348Z,2.33
2022-08-28T21:49:20.093Z,2.55
2022-08-28T21:51:47.052Z,2.72
2022-08-28T21:54:14.100Z,2.40
2022-08-28T21:56:40.631Z,2.47
2022-08-28T21:59:07.217Z,2.40
2022-08-28T22:01:34.179Z,2.15
2022-08-28T22:04:01.149Z,2.80
2022-08-28T22:06:27.675Z,2.28
2022-08-28T22:08:55.248Z,2.65
2022-08-28T22:11:24.761Z,2.97
2022-08-28T22:13:52.541Z,2.35
2022-08-28T22:16:19.743Z,2.35
2022-08-28T22:18:46.539Z,2.22
2022-08-28T22:21:34.111Z,2.60
2022-08-28T22:24:01.391Z,2.55
2022-08-28T22:26:28.470Z,2.40
2022-08-28T22:28:55.894Z,2.42
2022-08-28T22:31:23.134Z,2.35
2022-08-28T22:33:50.315Z,2.22
2022-08-28T22:36:17.476Z,2.47
2022-08-28T22:38:47.072Z,2.35
2022-08-28T22:41:20.431Z,2.78
2022-08-28T22:43:49.761Z,2.40
2022-08-28T22:46:18.692Z,2.30
2022-08-28T22:48:46.013Z,2.35
2022-08-28T22:51:15.539Z,2.22
2022-08-28T22:53:43.646Z,2.78
2022-08-28T22:56:11.779Z,2.53
2022-08-28T22:58:38.661Z,2.40
2022-08-28T23:01:09.957Z,2.53
2022-08-28T23:03:36.878Z,2.25
2022-08-28T23:06:04.013Z,2.70
2022-08-28T23:08:33.833Z,2.53
2022-08-28T23:11:01.197Z,2.85
2022-08-28T23:13:29.457Z,2.70
2022-08-28T23:15:56.056Z,2.65
2022-08-28T23:18:22.823Z,2.83
2022-08-28T23:20:50.518Z,2.55
2022-08-28T23:23:17.433Z,2.22
2022-08-28T23:25:44.135Z,2.67
2022-08-28T23:28:10.670Z,2.30
2022-08-28T23:30:38.979Z,2.80
2022-08-28T23:33:08.471Z,2.50
2022-08-28T23:35:35.997Z,2.72
2022-08-28T23:38:04.005Z,2.58
2022-08-28T23:40:33.147Z,2.53
2022-08-28T23:43:02.812Z,2.20
2022-08-28T23:45:30.001Z,2.53
2022-08-28T23:47:56.920Z,2.45
2022-08-28T23:50:23.618Z,2.58
2022-08-28T23:52:51.749Z,2.10
2022-08-28T23:55:19.629Z,2.50
2022-08-28T23:57:46.223Z,2.50
